Norridge, Illinois
Current Conditions -  °F | °C
As of 9:51 AM on Thursday 23 Oct 2014 (Local Time) from KORD Reporting Station
Broken Clouds Broken Clouds  
Wind Chill: 45°   Ceiling: 25000
Heat Index: 49°   Visibility: 10mi
Dew Point: 41°   Wind: 10mph
Humidity: 74%   Direction: 190°S
Pressure: 30.21"   Gusts: NA
Location:  41.9716°N, 87.822°W
Report Text: KORD 231451Z 19009KT 10SM SCT220 BKN250 09/05 A3021 RMK AO2 SLP233 T00940050 58001 $
Loading
Personal Weather Stations






























Interactive Weather Map
Tropical Storm Tracking
New forecast layout! Learn more

10-Day Weather Forecast

Advertisements
Track Severe Weather on mobile